Time;durP1;ratioP1;P1;durP2;ratioP2;P2;SDS_P1;SDS_P2;PMS_P1;PMS_P2;Temp;Humidity;BMP_temperature;BMP_pressure;BME280_temperature;BME280_humidity;BME280_pressure;Samples;Min_cycle;Max_cycle;Signal;HPM_P1;HPM_P2
2023/05/09 08:44:24;;;;;;;23.20;21.60;;;21.70;99.90;;;;;;6305438;22;20034;-93
2023/05/09 08:46:54;;;;;;;23.00;21.50;;;21.50;99.90;;;;;;6259072;22;20019;-92
2023/05/09 08:49:21;;;;;;;23.70;21.70;;;21.50;99.90;;;;;;6257616;22;20048;-91
2023/05/09 08:51:49;;;;;;;23.05;21.58;;;21.70;99.90;;;;;;6258211;22;20007;-92
2023/05/09 08:54:16;;;;;;;23.75;21.88;;;21.80;99.90;;;;;;6258737;22;19999;-92
2023/05/09 08:56:42;;;;;;;22.90;21.40;;;21.70;99.90;;;;;;6260852;22;20011;-91
2023/05/09 08:59:09;;;;;;;23.63;21.75;;;21.50;99.90;;;;;;6283589;22;20026;-92
2023/05/09 09:01:36;;;;;;;23.85;21.85;;;21.70;99.90;;;;;;6268820;22;20014;-92
2023/05/09 09:04:06;;;;;;;24.48;22.27;;;21.80;99.90;;;;;;6259188;22;20405;-94
2023/05/09 09:06:34;;;;;;;24.35;22.42;;;22.00;99.90;;;;;;6258190;22;20444;-92
2023/05/09 09:09:04;;;;;;;24.33;22.45;;;21.90;99.90;;;;;;6257600;22;20026;-94
2023/05/09 09:11:33;;;;;;;23.35;21.65;;;21.90;99.90;;;;;;6258583;22;20007;-94
2023/05/09 09:14:15;;;;;;;23.98;22.27;;;21.80;99.90;;;;;;6257981;22;20004;-95
2023/05/09 09:16:46;;;;;;;23.02;21.50;;;21.90;99.90;;;;;;6260301;22;20418;-92
2023/05/09 09:19:16;;;;;;;23.38;21.67;;;21.80;99.90;;;;;;6258739;22;20511;-91
2023/05/09 09:21:46;;;;;;;23.17;21.35;;;22.10;99.90;;;;;;6262114;22;20079;-92
2023/05/09 09:24:13;;;;;;;23.38;21.67;;;22.40;99.90;;;;;;6264876;22;20433;-93
2023/05/09 09:26:48;;;;;;;23.25;21.38;;;22.60;99.90;;;;;;6286183;22;20015;-92
2023/05/09 09:29:15;;;;;;;23.35;21.50;;;22.60;99.90;;;;;;6260324;22;20007;-93
2023/05/09 09:31:45;;;;;;;24.30;22.17;;;22.50;99.90;;;;;;6257472;22;20008;-92
2023/05/09 09:34:20;;;;;;;24.67;22.70;;;22.40;99.90;;;;;;6256670;22;20080;-93
2023/05/09 09:36:47;;;;;;;23.60;21.80;;;22.10;99.90;;;;;;6257384;22;20007;-94
2023/05/09 09:39:14;;;;;;;24.45;22.60;;;22.00;99.90;;;;;;6260151;22;20007;-93
2023/05/09 09:41:41;;;;;;;23.23;21.63;;;22.10;99.90;;;;;;6259107;22;20011;-92
2023/05/09 09:44:08;;;;;;;24.50;22.63;;;22.20;99.90;;;;;;6257965;22;20425;-91
2023/05/09 09:46:53;;;;;;;24.15;22.45;;;22.20;99.90;;;;;;6288853;22;20019;-92
2023/05/09 09:49:25;;;;;;;24.80;22.83;;;22.10;99.90;;;;;;6268968;22;20007;-92
2023/05/09 09:51:58;;;;;;;24.58;22.10;;;22.10;99.90;;;;;;6272200;22;20022;-92
2023/05/09 09:54:30;;;;;;;22.65;21.00;;;22.20;99.90;;;;;;6264774;22;20141;-93
2023/05/09 09:56:57;;;;;;;23.70;21.60;;;22.40;99.90;;;;;;6260856;22;20011;-91
2023/05/09 09:59:25;;;;;;;24.00;21.95;;;22.60;99.90;;;;;;6263986;22;20432;-92
2023/05/09 10:02:06;;;;;;;24.67;22.45;;;22.70;99.90;;;;;;6271564;22;20066;-92
2023/05/09 10:04:40;;;;;;;23.27;21.58;;;22.80;99.90;;;;;;6273623;22;20007;-90
2023/05/09 10:07:11;;;;;;;23.20;21.50;;;22.80;99.90;;;;;;6270385;22;20441;-91
2023/05/09 10:09:40;;;;;;;23.67;21.45;;;23.00;99.90;;;;;;6271826;22;20043;-91
2023/05/09 10:12:08;;;;;;;23.85;21.70;;;22.90;99.90;;;;;;6270215;22;20067;-93
2023/05/09 10:14:35;;;;;;;23.42;21.63;;;22.70;99.90;;;;;;6232818;23;20100;-93
2023/05/09 10:17:04;;;;;;;23.60;21.77;;;22.60;99.90;;;;;;6205758;23;20015;-90
2023/05/09 10:19:32;;;;;;;23.60;21.63;;;22.50;99.90;;;;;;6225262;23;20013;-90
2023/05/09 10:22:03;;;;;;;23.88;21.70;;;22.40;99.90;;;;;;6241712;23;20048;-91
2023/05/09 10:24:48;;;;;;;23.40;21.42;;;22.30;99.90;;;;;;6240244;23;20339;-90
2023/05/09 10:27:20;;;;;;;22.98;20.98;;;22.30;99.90;;;;;;6165662;23;20020;-92
2023/05/09 10:29:55;;;;;;;22.17;20.67;;;22.40;99.90;;;;;;6240296;23;20374;-91
2023/05/09 10:32:50;;;;;;;22.23;20.60;;;22.60;99.90;;;;;;6216140;23;20009;-93
2023/05/09 10:35:17;;;;;;;23.52;21.45;;;22.60;99.90;;;;;;6216456;23;20004;-92
2023/05/09 10:37:48;;;;;;;23.08;21.10;;;22.60;99.90;;;;;;6242415;23;20027;-92
2023/05/09 10:40:14;;;;;;;22.65;20.85;;;22.60;99.90;;;;;;6242105;23;20017;-92
2023/05/09 10:42:44;;;;;;;23.95;21.80;;;22.20;99.90;;;;;;6242440;23;20008;-92
2023/05/09 10:45:12;;;;;;;25.00;22.98;;;22.30;99.90;;;;;;6258110;22;20344;-91
2023/05/09 10:47:39;;;;;;;25.73;23.48;;;22.20;99.90;;;;;;6263424;22;19991;-91
2023/05/09 10:50:08;;;;;;;25.92;23.58;;;22.20;99.90;;;;;;6280929;22;20011;-91
2023/05/09 10:52:54;;;;;;;27.08;24.67;;;21.90;99.90;;;;;;6267109;22;20462;-95
2023/05/09 10:55:21;;;;;;;26.83;24.27;;;21.70;99.90;;;;;;6257869;22;20080;-93
2023/05/09 10:57:53;;;;;;;27.25;24.45;;;21.50;99.90;;;;;;6258220;22;20003;-94
2023/05/09 11:00:24;;;;;;;30.27;24.83;;;21.50;99.90;;;;;;6258229;22;20007;-93
2023/05/09 11:03:09;;;;;;;27.30;24.85;;;21.50;99.90;;;;;;6258065;22;20440;-93
2023/05/09 11:05:40;;;;;;;26.58;24.02;;;21.40;99.90;;;;;;6257380;22;20046;-94
2023/05/09 11:08:24;;;;;;;27.33;24.45;;;21.30;99.90;;;;;;6258037;22;19999;-92
2023/05/09 11:10:52;;;;;;;;;;;21.10;99.90;;;;;;6263191;22;20033;-92
2023/05/09 11:13:22;;;;;;;26.40;23.70;;;21.20;99.90;;;;;;6251988;22;20325;-81
2023/05/09 11:16:09;;;;;;;25.88;23.52;;;21.20;99.90;;;;;;6245644;22;20000;-81
2023/05/09 11:19:06;;;;;;;26.17;23.77;;;21.40;99.90;;;;;;6245688;23;20019;-91
2023/05/09 11:21:36;;;;;;;26.05;23.55;;;21.60;99.90;;;;;;6221164;23;20383;-88
2023/05/09 11:24:16;;;;;;;27.00;24.40;;;21.40;99.90;;;;;;6246162;22;20004;-87
2023/05/09 11:26:47;;;;;;;26.80;24.02;;;21.40;99.90;;;;;;6271800;22;20353;-88
2023/05/09 11:29:14;;;;;;;25.70;23.55;;;21.30;99.90;;;;;;6246579;23;20008;-87
2023/05/09 11:32:06;;;;;;;26.13;23.88;;;21.40;99.90;;;;;;6247363;23;20011;-91
2023/05/09 11:34:33;;;;;;;27.35;24.52;;;21.40;99.90;;;;;;6238462;22;20444;-90
2023/05/09 11:37:09;;;;;;;26.35;23.30;;;21.50;99.90;;;;;;6247854;23;20000;-90
2023/05/09 11:39:55;;;;;;;25.55;23.35;;;21.50;99.90;;;;;;6270543;22;20468;-90
2023/05/09 11:42:23;;;;;;;25.02;23.10;;;21.60;99.90;;;;;;6223094;23;20062;-90
2023/05/09 11:44:51;;;;;;;25.52;23.23;;;21.60;99.90;;;;;;6245498;22;20023;-90
2023/05/09 11:47:18;;;;;;;24.77;22.80;;;21.80;99.90;;;;;;6246093;23;20012;-90
2023/05/09 11:49:44;;;;;;;24.60;22.48;;;21.90;99.90;;;;;;6223563;23;20004;-89
2023/05/09 11:52:11;;;;;;;25.17;22.73;;;21.90;99.90;;;;;;6248341;23;20008;-89
2023/05/09 11:54:39;;;;;;;24.95;22.83;;;21.80;99.90;;;;;;6223350;23;20020;-90
2023/05/09 11:57:06;;;;;;;25.83;23.52;;;21.70;99.90;;;;;;6248665;22;20327;-91
2023/05/09 11:59:34;;;;;;;25.38;23.13;;;21.50;99.90;;;;;;6248794;23;20008;-89
2023/05/09 12:02:05;;;;;;;25.38;23.10;;;21.50;99.90;;;;;;6247620;23;20000;-89
2023/05/09 12:04:33;;;;;;;26.92;24.20;;;21.40;99.90;;;;;;6246823;23;20008;-89
2023/05/09 12:07:00;;;;;;;25.70;23.50;;;21.60;99.90;;;;;;6247429;22;20005;-90
2023/05/09 12:09:37;;;;;;;25.70;23.50;;;21.50;99.90;;;;;;6247442;23;20011;-88
2023/05/09 12:12:11;;;;;;;25.00;22.58;;;21.50;99.90;;;;;;6247419;23;20089;-88
2023/05/09 12:14:38;;;;;;;25.05;22.98;;;21.50;99.90;;;;;;6247399;23;20031;-90
2023/05/09 12:17:08;;;;;;;25.55;23.25;;;21.50;99.90;;;;;;6246979;22;20457;-90
2023/05/09 12:19:35;;;;;;;26.67;24.27;;;21.60;99.90;;;;;;6221930;23;20008;-90
2023/05/09 12:22:05;;;;;;;25.65;23.38;;;21.70;99.90;;;;;;6221852;23;20012;-89
2023/05/09 12:24:35;;;;;;;26.70;24.45;;;21.80;99.90;;;;;;6249189;23;20061;-90
2023/05/09 12:27:03;;;;;;;27.33;24.67;;;21.60;99.90;;;;;;6221664;23;20008;-81
2023/05/09 12:29:30;;;;;;;26.08;24.02;;;21.50;99.90;;;;;;6245967;23;20005;-86
2023/05/09 12:31:57;;;;;;;26.77;24.50;;;21.50;99.90;;;;;;6245665;23;20468;-89
2023/05/09 12:34:24;;;;;;;27.48;24.88;;;21.40;99.90;;;;;;6245887;23;20004;-88
2023/05/09 12:36:50;;;;;;;27.65;24.77;;;21.20;99.90;;;;;;6220745;23;20389;-87
2023/05/09 12:39:20;;;;;;;26.80;24.17;;;21.20;99.90;;;;;;6245453;23;20008;-85
2023/05/09 12:41:50;;;;;;;27.42;24.77;;;21.10;99.90;;;;;;6245672;23;20019;-85
2023/05/09 12:44:21;;;;;;;27.48;24.67;;;21.00;99.90;;;;;;6270957;22;20008;-86
2023/05/09 12:47:02;;;;;;;25.73;23.52;;;21.00;99.90;;;;;;6245287;22;20051;-85
2023/05/09 12:49:30;;;;;;;27.95;25.13;;;21.00;99.90;;;;;;6245388;23;20008;-87
2023/05/09 12:52:02;;;;;;;27.95;25.02;;;21.00;99.90;;;;;;6245436;23;20091;-87
2023/05/09 12:54:29;;;;;;;27.10;24.60;;;21.00;99.90;;;;;;6250257;23;20344;-92
2023/05/09 12:56:57;;;;;;;26.30;23.88;;;20.90;99.90;;;;;;6246020;22;20011;-92
2023/05/09 12:59:26;;;;;;;27.40;24.45;;;20.80;99.90;;;;;;6245949;23;20008;-91
2023/05/09 13:01:57;;;;;;;26.13;23.55;;;20.90;99.90;;;;;;6246034;23;20078;-91
2023/05/09 13:04:26;;;;;;;25.65;22.38;;;20.70;99.90;;;;;;6247289;23;20055;-93
2023/05/09 13:06:59;;;;;;;24.58;21.95;;;20.60;99.90;;;;;;6247360;22;20010;-91
2023/05/09 13:09:26;;;;;;;24.73;22.25;;;20.60;99.90;;;;;;6246932;23;20008;-92
2023/05/09 13:14:47;;;;;;;23.52;21.02;;;20.50;99.90;;;;;;6278848;22;20024;-95
2023/05/09 13:17:14;;;;;;;24.42;21.95;;;20.50;99.90;;;;;;6228973;22;20011;-94
2023/05/09 13:19:41;;;;;;;25.65;22.95;;;20.70;99.90;;;;;;6258568;22;20021;-94
2023/05/09 13:22:11;;;;;;;25.38;22.75;;;20.70;99.90;;;;;;6257961;22;20009;-94
2023/05/09 13:24:37;;;;;;;25.80;23.40;;;20.80;99.90;;;;;;6282746;22;20007;-94
2023/05/09 13:27:04;;;;;;;26.10;23.35;;;20.90;99.90;;;;;;6258354;22;20007;-96
2023/05/09 13:29:36;;;;;;;26.13;23.48;;;21.00;99.90;;;;;;6287048;22;20022;-94
2023/05/09 13:32:03;;;;;;;25.85;23.15;;;21.20;99.90;;;;;;6258684;22;20007;-94
2023/05/09 13:34:30;;;;;;;24.90;22.60;;;21.00;99.90;;;;;;6256911;22;20423;-95
2023/05/09 13:36:57;;;;;;;26.98;24.35;;;21.10;99.90;;;;;;6257587;22;20007;-94
2023/05/09 13:39:27;;;;;;;26.52;24.02;;;21.10;99.90;;;;;;6263544;22;20026;-93
2023/05/09 13:41:54;;;;;;;26.10;23.80;;;21.10;99.90;;;;;;6263498;22;20007;-95
2023/05/09 13:44:22;;;;;;;25.85;23.50;;;21.40;99.90;;;;;;6258575;22;20074;-94
2023/05/09 13:46:52;;;;;;;26.55;24.23;;;21.50;99.90;;;;;;6257879;22;20019;-95
2023/05/09 13:49:19;;;;;;;27.23;24.75;;;21.70;99.90;;;;;;6256849;22;20065;-95
2023/05/09 13:51:46;;;;;;;27.23;24.83;;;21.80;99.90;;;;;;6258209;22;20007;-94
2023/05/09 13:54:14;;;;;;;26.55;24.02;;;21.80;99.90;;;;;;6258125;22;20078;-95
2023/05/09 13:56:43;;;;;;;27.00;24.40;;;21.60;99.90;;;;;;6258946;22;20022;-94
2023/05/09 13:59:10;;;;;;;27.33;24.90;;;21.60;99.90;;;;;;6258873;22;19999;-95
2023/05/09 14:01:36;;;;;;;27.20;24.98;;;21.60;99.90;;;;;;6259354;22;20007;-95
2023/05/09 14:04:03;;;;;;;27.67;25.27;;;21.40;99.90;;;;;;6259126;22;20011;-94
2023/05/09 14:06:32;;;;;;;27.02;24.88;;;21.40;99.90;;;;;;6259780;22;20072;-94
2023/05/09 14:08:58;;;;;;;28.00;25.30;;;21.20;99.90;;;;;;6260386;22;20029;-95
2023/05/09 14:11:26;;;;;;;27.08;24.67;;;21.10;99.90;;;;;;6285847;22;20433;-96
2023/05/09 14:13:53;;;;;;;26.08;23.77;;;21.20;99.90;;;;;;6261195;22;20098;-94
2023/05/09 14:16:20;;;;;;;28.05;25.02;;;21.30;99.90;;;;;;6261605;22;19999;-95
2023/05/09 14:18:47;;;;;;;27.55;25.02;;;21.20;99.90;;;;;;6261302;22;20024;-94
2023/05/09 14:21:14;;;;;;;27.38;24.98;;;21.20;99.90;;;;;;6259025;22;20328;-95
2023/05/09 14:23:42;;;;;;;27.50;25.10;;;21.00;99.90;;;;;;6259294;22;20003;-94
2023/05/09 14:26:09;;;;;;;27.58;24.48;;;21.10;99.90;;;;;;6258930;22;20019;-95
2023/05/09 14:28:37;;;;;;;26.60;24.02;;;21.10;99.90;;;;;;6259784;22;20030;-94
2023/05/09 14:31:03;;;;;;;26.10;23.73;;;21.00;99.90;;;;;;6261564;22;20034;-95
2023/05/09 14:33:31;;;;;;;26.05;23.55;;;20.70;99.90;;;;;;6261203;22;20428;-94
2023/05/09 14:36:01;;;;;;;26.70;24.20;;;20.80;99.90;;;;;;6260820;22;20007;-94
2023/05/09 14:38:28;;;;;;;26.23;23.65;;;20.60;99.90;;;;;;6261541;22;20010;-94
2023/05/09 14:40:58;;;;;;;25.40;22.55;;;20.60;99.90;;;;;;6259812;22;20444;-95
2023/05/09 14:43:24;;;;;;;25.55;22.65;;;20.60;99.90;;;;;;6259391;22;20004;-94
2023/05/09 14:45:51;;;;;;;25.67;22.42;;;20.60;99.90;;;;;;6259607;22;20011;-95
2023/05/09 14:48:18;;;;;;;29.45;22.55;;;20.60;99.90;;;;;;6258990;22;20003;-94
2023/05/09 14:50:44;;;;;;;26.88;21.67;;;20.60;99.90;;;;;;6258897;22;20008;-94
2023/05/09 14:53:11;;;;;;;23.25;20.80;;;20.50;99.90;;;;;;6259588;22;20463;-94
2023/05/09 14:55:38;;;;;;;29.60;21.75;;;20.50;99.90;;;;;;6260411;22;20457;-94
2023/05/09 14:58:04;;;;;;;24.25;21.58;;;20.50;99.90;;;;;;6260950;22;20038;-94
2023/05/09 15:00:32;;;;;;;23.98;21.27;;;20.50;99.90;;;;;;6261970;22;20034;-94
2023/05/09 15:02:59;;;;;;;25.05;21.90;;;20.70;99.90;;;;;;6262096;22;20019;-95
2023/05/09 15:05:26;;;;;;;24.25;21.77;;;20.80;99.90;;;;;;6260426;22;20062;-94
2023/05/09 15:07:52;;;;;;;24.15;21.40;;;20.70;99.90;;;;;;6260073;22;20003;-94
2023/05/09 15:10:19;;;;;;;23.67;21.23;;;20.60;99.90;;;;;;6260097;22;20091;-94
2023/05/09 15:12:46;;;;;;;23.67;21.23;;;20.70;99.90;;;;;;6259686;22;19999;-94
2023/05/09 15:15:14;;;;;;;24.60;22.00;;;20.60;99.90;;;;;;6260040;22;20011;-94
2023/05/09 15:17:41;;;;;;;24.25;21.63;;;20.60;99.90;;;;;;6259232;22;20096;-94
2023/05/09 15:20:08;;;;;;;23.45;21.10;;;20.70;99.90;;;;;;6258857;22;20007;-94
2023/05/09 15:22:35;;;;;;;23.23;20.88;;;20.80;99.90;;;;;;6258876;22;20007;-95
2023/05/09 15:25:02;;;;;;;23.30;20.85;;;20.80;99.90;;;;;;6258423;22;20019;-95
2023/05/09 15:27:28;;;;;;;22.70;20.50;;;20.70;99.90;;;;;;6258601;22;20007;-94
2023/05/09 15:29:55;;;;;;;23.00;20.77;;;20.80;99.90;;;;;;6258658;22;20433;-94
2023/05/09 15:32:22;;;;;;;21.70;19.70;;;20.70;99.90;;;;;;6258863;22;20363;-94
2023/05/09 15:34:49;;;;;;;22.38;19.98;;;20.70;99.90;;;;;;6260287;22;20007;-94
2023/05/09 15:37:19;;;;;;;21.83;19.80;;;20.80;99.90;;;;;;6258982;22;20003;-94
2023/05/09 15:39:45;;;;;;;22.27;20.35;;;20.70;99.90;;;;;;6259033;22;20022;-94
2023/05/09 15:42:13;;;;;;;23.52;21.13;;;20.80;99.90;;;;;;6259091;22;20035;-95
2023/05/09 15:44:41;;;;;;;24.00;21.45;;;20.70;99.90;;;;;;6259556;22;20066;-94
2023/05/09 15:47:09;;;;;;;23.15;20.80;;;20.80;99.90;;;;;;6260488;22;20336;-94
2023/05/09 15:49:36;;;;;;;23.25;20.88;;;20.80;99.90;;;;;;6260154;22;19996;-94
2023/05/09 15:52:08;;;;;;;23.38;20.70;;;20.80;99.90;;;;;;6259476;22;20015;-94
2023/05/09 15:54:36;;;;;;;21.65;19.17;;;20.70;99.90;;;;;;6259673;22;20015;-94
2023/05/09 15:57:03;;;;;;;20.35;18.55;;;20.60;99.90;;;;;;6258816;22;20386;-94
2023/05/09 15:59:30;;;;;;;21.13;19.02;;;20.70;99.90;;;;;;6259644;22;20011;-95
2023/05/09 16:01:57;;;;;;;21.02;19.35;;;20.70;99.90;;;;;;6258849;22;20082;-95
2023/05/09 16:04:24;;;;;;;21.10;19.20;;;20.70;99.90;;;;;;6258861;22;20344;-94
2023/05/09 16:06:50;;;;;;;21.08;19.45;;;20.80;99.90;;;;;;6257807;22;20023;-95
2023/05/09 16:09:18;;;;;;;21.67;19.65;;;20.90;99.90;;;;;;6258279;22;20388;-94
2023/05/09 16:11:44;;;;;;;22.48;20.20;;;21.00;99.90;;;;;;6258165;22;20007;-95
2023/05/09 16:14:11;;;;;;;22.08;20.20;;;20.90;99.90;;;;;;6257868;22;20019;-95
2023/05/09 16:16:39;;;;;;;21.17;19.25;;;20.80;99.90;;;;;;6257372;22;20365;-94
2023/05/09 16:19:07;;;;;;;22.13;20.13;;;20.90;99.90;;;;;;6258336;22;20310;-95
2023/05/09 16:21:34;;;;;;;21.73;19.73;;;20.80;99.90;;;;;;6257496;22;20082;-93
2023/05/09 16:24:01;;;;;;;20.08;18.48;;;20.60;99.90;;;;;;6256837;22;20011;-93
2023/05/09 16:26:28;;;;;;;20.55;18.70;;;20.50;99.90;;;;;;6256934;22;20451;-94
2023/05/09 16:28:55;;;;;;;21.83;19.92;;;20.60;99.90;;;;;;6258311;22;20038;-93
2023/05/09 16:31:25;;;;;;;21.75;20.05;;;20.50;99.90;;;;;;6288075;22;20348;-94
2023/05/09 16:33:53;;;;;;;22.88;20.88;;;20.50;99.90;;;;;;6261894;22;20034;-94
2023/05/09 16:36:21;;;;;;;25.08;21.02;;;20.60;99.90;;;;;;6289376;22;20003;-94
2023/05/09 16:38:48;;;;;;;22.35;20.35;;;20.50;99.90;;;;;;6261072;22;20004;-94
2023/05/09 16:41:14;;;;;;;22.85;20.75;;;20.50;99.90;;;;;;6257189;22;20028;-94
2023/05/09 16:43:41;;;;;;;22.33;20.23;;;20.40;99.90;;;;;;6252242;22;20015;-94
2023/05/09 16:46:08;;;;;;;24.83;20.63;;;20.40;99.90;;;;;;6277909;22;20098;-94
2023/05/09 16:48:34;;;;;;;22.38;20.38;;;20.40;99.90;;;;;;6277772;22;20007;-94
2023/05/09 16:51:05;;;;;;;22.65;20.65;;;20.40;99.90;;;;;;6251904;22;20016;-94
2023/05/09 16:53:35;;;;;;;22.70;20.48;;;20.40;99.90;;;;;;6279012;22;20012;-94
2023/05/09 16:56:06;;;;;;;22.10;20.17;;;20.40;99.90;;;;;;6280760;22;20433;-93
2023/05/09 16:58:33;;;;;;;23.35;20.92;;;20.40;99.90;;;;;;6239799;22;20390;-94
2023/05/09 17:01:01;;;;;;;22.90;20.80;;;20.30;99.90;;;;;;6229001;22;20011;-95
2023/05/09 17:03:28;;;;;;;22.05;19.88;;;20.10;99.90;;;;;;6254325;22;20012;-93
2023/05/09 17:05:54;;;;;;;23.50;19.77;;;19.90;99.90;;;;;;6226687;22;20011;-94
2023/05/09 17:08:21;;;;;;;21.98;19.63;;;19.80;99.90;;;;;;6254803;22;20004;-94
2023/05/09 17:10:48;;;;;;;22.42;20.13;;;19.60;99.90;;;;;;6227071;22;20007;-93
2023/05/09 17:13:14;;;;;;;21.70;19.60;;;19.60;99.90;;;;;;6253403;22;20008;-93
2023/05/09 17:15:41;;;;;;;22.10;18.25;;;19.60;99.90;;;;;;6226777;22;20003;-94
2023/05/09 18:26:01;;;;;;;18.88;16.23;;;18.80;99.90;;;;;;6291311;22;20218;-84
2023/05/09 18:28:28;;;;;;;19.52;15.40;;;18.80;99.90;;;;;;6255117;22;20058;-82
2023/05/09 18:30:56;;;;;;;19.25;16.90;;;18.70;99.90;;;;;;6280596;22;19992;-83
2023/05/09 18:33:26;;;;;;;20.90;16.35;;;18.60;99.90;;;;;;6308182;22;20003;-81
2023/05/09 18:35:53;;;;;;;19.40;15.43;;;18.70;99.90;;;;;;6280303;22;20333;-83
2023/05/09 18:38:20;;;;;;;19.05;15.80;;;18.60;99.90;;;;;;6255007;22;20400;-83
2023/05/09 18:40:47;;;;;;;17.80;15.93;;;18.60;99.90;;;;;;6254824;22;20462;-82
2023/05/09 18:43:15;;;;;;;17.13;15.10;;;18.60;99.90;;;;;;6254859;22;20010;-82
2023/05/09 18:45:52;;;;;;;18.35;15.57;;;18.60;99.90;;;;;;6256092;22;20027;-92
2023/05/09 18:48:24;;;;;;;;;;;18.60;99.90;;;;;;6245982;22;20019;-93
2023/05/09 18:50:56;;;;;;;21.63;15.13;;;18.50;99.90;;;;;;6239468;22;19915;-90
2023/05/09 18:53:27;;;;;;;18.17;15.43;;;18.50;99.90;;;;;;6290242;22;20058;-91
2023/05/09 18:55:55;;;;;;;18.27;14.73;;;18.50;99.90;;;;;;6265841;22;20015;-90
2023/05/09 18:58:23;;;;;;;20.98;15.25;;;18.50;99.90;;;;;;6240273;22;20071;-91
2023/05/09 19:00:51;;;;;;;18.67;14.52;;;18.40;99.90;;;;;;6265503;22;20003;-91
2023/05/09 19:03:17;;;;;;;16.92;14.98;;;18.40;99.90;;;;;;6241558;22;20445;-91
2023/05/09 19:05:45;;;;;;;16.98;15.18;;;18.40;99.90;;;;;;6241016;22;20016;-90
2023/05/09 19:08:12;;;;;;;16.90;15.20;;;18.40;99.90;;;;;;6266066;22;19999;-91
2023/05/09 19:10:38;;;;;;;20.15;14.55;;;18.40;99.90;;;;;;6262137;22;20019;-91
2023/05/09 19:13:05;;;;;;;16.27;14.27;;;18.40;99.90;;;;;;6233304;22;20004;-89
2023/05/09 19:15:32;;;;;;;16.88;14.50;;;18.40;99.90;;;;;;6232916;22;20008;-91
2023/05/09 19:17:58;;;;;;;20.55;14.60;;;18.40;99.90;;;;;;6253915;22;20011;-91
2023/05/09 19:20:25;;;;;;;20.20;14.98;;;18.40;99.90;;;;;;6254422;22;20012;-91
2023/05/09 19:22:51;;;;;;;18.42;14.50;;;18.40;99.90;;;;;;6228838;22;20011;-91
2023/05/09 19:25:18;;;;;;;21.65;14.63;;;18.30;99.90;;;;;;6272228;22;20011;-88
2023/05/09 19:27:45;;;;;;;19.83;13.60;;;18.20;99.90;;;;;;6232688;22;20031;-90
2023/05/09 19:30:16;;;;;;;15.38;13.75;;;18.20;99.90;;;;;;6253245;22;20079;-91
2023/05/09 19:32:43;;;;;;;18.75;13.57;;;18.10;99.90;;;;;;6226710;22;20038;-92
2023/05/09 19:35:09;;;;;;;18.40;13.88;;;18.10;99.90;;;;;;6252093;22;20456;-90
2023/05/09 19:37:36;;;;;;;14.57;13.07;;;18.10;99.90;;;;;;6226581;22;20418;-92
2023/05/09 19:40:06;;;;;;;17.02;13.45;;;18.10;99.90;;;;;;6251940;22;20028;-92
2023/05/09 19:42:33;;;;;;;18.85;13.98;;;18.10;99.90;;;;;;6252709;22;20338;-91
2023/05/09 19:45:00;;;;;;;15.20;13.68;;;18.10;99.90;;;;;;6251824;22;20007;-93
2023/05/09 19:47:27;;;;;;;19.50;13.90;;;18.10;99.90;;;;;;6226914;22;20011;-92
2023/05/09 19:49:53;;;;;;;17.13;13.63;;;18.10;99.90;;;;;;6247943;23;20056;-91
2023/05/09 19:52:20;;;;;;;15.73;13.18;;;18.10;99.90;;;;;;6223085;22;20074;-92
2023/05/09 19:54:48;;;;;;;14.88;13.23;;;18.00;99.90;;;;;;6227907;22;20057;-91
2023/05/09 19:57:15;;;;;;;16.77;13.57;;;18.10;99.90;;;;;;6227456;22;20012;-91
2023/05/09 19:59:41;;;;;;;17.00;13.95;;;18.10;99.90;;;;;;6227671;22;20081;-93
2023/05/09 20:02:08;;;;;;;14.73;13.25;;;18.10;99.90;;;;;;6252959;22;20087;-91
2023/05/09 20:04:36;;;;;;;16.27;14.10;;;18.00;99.90;;;;;;6227572;22;20047;-91
2023/05/09 20:07:03;;;;;;;15.45;13.82;;;18.00;99.90;;;;;;6227559;22;20046;-93
2023/05/09 20:09:31;;;;;;;15.70;13.77;;;18.00;99.90;;;;;;6251802;22;20078;-84
2023/05/09 20:12:02;;;;;;;14.40;13.13;;;18.00;99.90;;;;;;6226992;22;20083;-84
2023/05/09 20:14:30;;;;;;;14.73;13.18;;;17.90;99.90;;;;;;6277822;22;20035;-85
2023/05/09 20:16:57;;;;;;;18.42;13.23;;;17.80;99.90;;;;;;6252490;22;20014;-86
2023/05/09 20:19:23;;;;;;;15.05;13.65;;;17.80;99.90;;;;;;6226587;22;20003;-88
2023/05/09 20:21:50;;;;;;;15.02;13.55;;;17.80;99.90;;;;;;6251740;22;20003;-86
2023/05/09 20:24:16;;;;;;;14.50;13.13;;;17.80;99.90;;;;;;6250847;22;20004;-86
2023/05/09 20:26:43;;;;;;;14.85;13.32;;;17.80;99.90;;;;;;6250643;22;20012;-84
2023/05/09 20:29:09;;;;;;;16.00;13.75;;;17.80;99.90;;;;;;6250526;22;20036;-83
2023/05/09 20:31:35;;;;;;;15.65;14.13;;;17.80;99.90;;;;;;6276017;22;20337;-83
2023/05/09 20:34:02;;;;;;;16.15;13.60;;;17.70;99.90;;;;;;6278002;22;19996;-85
2023/05/09 20:36:28;;;;;;;15.48;13.88;;;17.70;99.90;;;;;;6278045;22;20445;-85
2023/05/09 20:38:56;;;;;;;16.85;14.38;;;17.60;99.90;;;;;;6225064;22;20003;-83
2023/05/09 20:41:23;;;;;;;20.05;14.02;;;17.60;99.90;;;;;;6250425;22;20007;-83
2023/05/09 20:43:50;;;;;;;18.88;14.40;;;17.60;99.90;;;;;;6251028;22;20447;-84
2023/05/09 20:46:17;;;;;;;17.83;14.15;;;17.70;99.90;;;;;;6277541;22;20012;-84
2023/05/09 20:48:43;;;;;;;17.40;14.25;;;17.70;99.90;;;;;;6224666;22;20045;-83
2023/05/09 20:51:09;;;;;;;19.63;14.90;;;17.70;99.90;;;;;;6249997;22;20011;-82
2023/05/09 20:53:36;;;;;;;20.55;14.73;;;17.80;99.90;;;;;;6251034;22;20344;-82
2023/05/09 20:56:03;;;;;;;20.33;14.88;;;17.80;99.90;;;;;;6251324;22;20012;-82
2023/05/09 20:58:32;;;;;;;18.52;16.00;;;17.80;99.90;;;;;;6278556;22;20053;-84
2023/05/09 21:00:59;;;;;;;18.48;15.32;;;17.70;99.90;;;;;;6252239;22;20111;-84
2023/05/09 21:03:26;;;;;;;25.13;16.02;;;17.70;99.90;;;;;;6226533;22;20337;-83
2023/05/09 21:05:53;;;;;;;23.48;15.85;;;17.70;99.90;;;;;;6226605;22;20024;-83
2023/05/09 21:08:19;;;;;;;23.77;15.40;;;17.70;99.90;;;;;;6278620;22;19995;-83
2023/05/09 21:10:46;;;;;;;25.50;16.88;;;17.70;99.90;;;;;;6225950;22;20007;-83
2023/05/09 21:13:12;;;;;;;27.13;15.68;;;17.70;99.90;;;;;;6251766;22;20340;-83
2023/05/09 21:15:39;;;;;;;25.35;15.52;;;17.70;99.90;;;;;;6251932;22;20007;-83
2023/05/09 21:18:05;;;;;;;25.80;16.27;;;17.70;99.90;;;;;;6251575;22;20089;-83
2023/05/09 21:20:31;;;;;;;24.33;15.20;;;17.70;99.90;;;;;;6251190;22;20089;-82
2023/05/09 21:22:58;;;;;;;18.60;15.30;;;17.70;99.90;;;;;;6278142;22;20425;-83
2023/05/09 21:25:24;;;;;;;23.48;15.65;;;17.80;99.90;;;;;;6250490;22;20008;-84
2023/05/09 21:27:50;;;;;;;18.23;15.15;;;17.80;99.90;;;;;;6250165;22;20023;-82
2023/05/09 21:30:17;;;;;;;21.83;15.85;;;17.80;99.90;;;;;;6224711;22;20008;-84
2023/05/09 21:32:43;;;;;;;26.75;15.75;;;17.80;99.90;;;;;;6224788;22;20007;-83
2023/05/09 21:35:11;;;;;;;24.95;15.85;;;17.80;99.90;;;;;;6250161;22;20414;-82
2023/05/09 21:37:38;;;;;;;17.73;15.05;;;17.70;99.90;;;;;;6223862;22;20020;-82
2023/05/09 21:40:05;;;;;;;20.63;15.38;;;17.70;99.90;;;;;;6250369;22;19992;-82
2023/05/09 21:42:32;;;;;;;21.75;14.75;;;17.70;99.90;;;;;;6276808;22;20049;-82
2023/05/09 21:44:58;;;;;;;21.55;15.13;;;17.70;99.90;;;;;;6277313;22;20053;-82
2023/05/09 21:47:24;;;;;;;23.50;16.05;;;17.70;99.90;;;;;;6276897;22;20039;-83
2023/05/09 21:49:51;;;;;;;22.77;15.68;;;17.70;99.90;;;;;;6274795;22;20457;-82
2023/05/09 21:52:17;;;;;;;21.92;17.15;;;17.60;99.90;;;;;;6249279;22;20071;-82
2023/05/09 21:54:44;;;;;;;27.05;17.20;;;17.60;99.90;;;;;;6276748;22;20544;-81
2023/05/09 21:57:10;;;;;;;27.52;16.40;;;17.60;99.90;;;;;;6277040;22;20065;-81
2023/05/09 21:59:37;;;;;;;25.80;17.95;;;17.60;99.90;;;;;;6277230;22;19999;-82
2023/05/09 22:02:04;;;;;;;26.55;18.15;;;17.60;99.90;;;;;;6274968;22;20008;-82
2023/05/09 22:04:30;;;;;;;30.15;17.67;;;17.60;99.90;;;;;;6224704;22;20095;-83
2023/05/09 22:06:56;;;;;;;27.90;18.63;;;17.60;99.90;;;;;;6250644;22;20020;-82
2023/05/09 22:09:22;;;;;;;30.60;19.27;;;17.60;99.90;;;;;;6225755;22;20007;-83
2023/05/09 22:11:49;;;;;;;31.65;20.42;;;17.60;99.90;;;;;;6250942;22;19999;-82
2023/05/09 22:14:15;;;;;;;32.83;19.88;;;17.50;99.90;;;;;;6278034;22;20007;-82
2023/05/09 22:16:41;;;;;;;30.20;19.48;;;17.60;99.90;;;;;;6278072;22;20057;-82
2023/05/09 22:19:08;;;;;;;34.17;20.77;;;17.60;99.90;;;;;;6277917;22;20034;-83
2023/05/09 22:21:35;;;;;;;30.23;19.88;;;17.60;99.90;;;;;;6250951;22;20299;-83
2023/05/09 22:24:01;;;;;;;39.70;22.08;;;17.50;99.90;;;;;;6250612;22;20015;-82
2023/05/09 22:26:27;;;;;;;37.65;21.65;;;17.50;99.90;;;;;;6251836;22;20021;-82
2023/05/09 22:28:57;;;;;;;36.03;21.73;;;17.50;99.90;;;;;;6279699;22;19996;-83